Time;durP1;ratioP1;P1;durP2;ratioP2;P2;SDS_P1;SDS_P2;PMS_P1;PMS_P2;Temp;Humidity;BMP_temperature;BMP_pressure;BME280_temperature;BME280_humidity;BME280_pressure;Samples;Min_cycle;Max_cycle;Signal;HPM_P1;HPM_P2
2022/08/12 00:44:17;;;;;;;6.68;2.78;;;;;;;;;;5031034;28;20112;-63
2022/08/12 00:46:49;;;;;;;4.22;2.88;;;;;;;;;;5044907;28;20061;-63
2022/08/12 00:49:17;;;;;;;8.05;2.97;;;;;;;;;;5048947;28;20075;-62
2022/08/12 00:54:28;;;;;;;4.32;2.75;;;;;;;;;;5050548;28;20087;-62
2022/08/12 00:56:53;;;;;;;5.72;3.05;;;;;;;;;;5030441;28;20289;-62
2022/08/12 00:59:19;;;;;;;5.25;3.05;;;;;;;;;;5031247;28;20041;-63
2022/08/12 01:01:47;;;;;;;4.00;3.10;;;;;;;;;;5031654;28;20125;-63
2022/08/12 01:12:35;;;;;;;6.03;3.28;;;;;;;;;;5031035;28;20124;-63
2022/08/12 01:15:01;;;;;;;5.38;3.05;;;;;;;;;;5029632;28;20041;-64
2022/08/12 01:17:28;;;;;;;5.68;3.00;;;;;;;;;;5030845;28;20071;-63
2022/08/12 01:19:54;;;;;;;6.38;3.20;;;;;;;;;;5036536;28;20029;-63
2022/08/12 01:22:29;;;;;;;5.95;2.88;;;;;;;;;;5048782;28;20028;-63
2022/08/12 01:25:01;;;;;;;6.25;3.10;;;;;;;;;;5036365;28;20052;-63
2022/08/12 01:27:28;;;;;;;7.40;2.97;;;;;;;;;;5034496;28;20044;-65
2022/08/12 01:29:56;;;;;;;5.65;2.92;;;;;;;;;;5048858;28;20052;-63
2022/08/12 01:32:22;;;;;;;6.72;3.00;;;;;;;;;;5054024;28;20055;-63
2022/08/12 01:35:02;;;;;;;5.90;3.20;;;;;;;;;;5036939;28;20041;-62
2022/08/12 01:37:32;;;;;;;6.78;3.42;;;;;;;;;;5033803;28;20405;-62
2022/08/12 01:39:59;;;;;;;5.70;3.33;;;;;;;;;;5046639;28;20362;-62
2022/08/12 01:42:30;;;;;;;4.60;3.10;;;;;;;;;;5053997;28;20029;-62
2022/08/12 01:44:56;;;;;;;7.93;3.25;;;;;;;;;;5038411;28;20029;-63
2022/08/12 01:47:28;;;;;;;5.65;3.30;;;;;;;;;;5045905;28;20039;-63
2022/08/12 01:50:04;;;;;;;4.68;3.17;;;;;;;;;;5039904;28;20048;-63
2022/08/12 01:53:11;;;;;;;6.07;3.42;;;;;;;;;;5033854;28;20037;-62
2022/08/12 01:55:41;;;;;;;6.68;3.38;;;;;;;;;;5034560;28;20562;-62
2022/08/12 01:58:19;;;;;;;5.25;3.20;;;;;;;;;;5033430;28;20053;-62
2022/08/12 02:00:57;;;;;;;5.40;3.40;;;;;;;;;;5032852;28;20044;-62
2022/08/12 02:13:14;;;;;;;9.02;3.90;;;;;;;;;;5044946;28;20501;-62
2022/08/12 02:15:51;;;;;;;6.07;3.20;;;;;;;;;;5049059;28;20086;-65
2022/08/12 02:18:17;;;;;;;6.32;3.33;;;;;;;;;;5044984;28;20044;-63
2022/08/12 02:21:04;;;;;;;6.03;3.28;;;;;;;;;;5052530;28;20381;-64
2022/08/12 02:23:30;;;;;;;8.73;3.38;;;;;;;;;;5040475;28;20025;-63
2022/08/12 02:26:00;;;;;;;7.07;3.33;;;;;;;;;;5032455;28;20045;-63
2022/08/12 02:28:27;;;;;;;6.57;3.58;;;;;;;;;;5044161;28;20033;-63
2022/08/12 02:30:53;;;;;;;5.78;3.50;;;;;;;;;;5051976;28;20033;-63
2022/08/12 02:33:20;;;;;;;6.40;3.47;;;;;;;;;;5036181;28;20036;-62
2022/08/12 02:35:46;;;;;;;7.68;3.60;;;;;;;;;;5032620;28;20033;-64
2022/08/12 02:38:12;;;;;;;4.22;3.45;;;;;;;;;;5023668;28;20030;-63
2022/08/12 02:40:41;;;;;;;6.95;3.50;;;;;;;;;;5039778;28;20116;-63
2022/08/12 02:43:26;;;;;;;8.68;3.80;;;;;;;;;;5052491;28;20178;-63
2022/08/12 02:45:56;;;;;;;4.45;3.25;;;;;;;;;;5041751;28;20033;-62
2022/08/12 02:48:30;;;;;;;5.53;3.50;;;;;;;;;;5050041;28;20087;-62
2022/08/12 02:51:00;;;;;;;6.95;3.63;;;;;;;;;;5031815;28;20041;-62
2022/08/12 02:53:26;;;;;;;6.35;3.47;;;;;;;;;;5032897;28;20033;-62
2022/08/12 02:55:52;;;;;;;7.35;3.65;;;;;;;;;;5031417;28;20112;-62
2022/08/12 02:58:18;;;;;;;4.88;3.17;;;;;;;;;;5032283;28;20060;-63
2022/08/12 03:00:44;;;;;;;5.03;3.35;;;;;;;;;;5032950;28;20431;-64
2022/08/12 03:03:12;;;;;;;6.18;3.58;;;;;;;;;;5047970;28;20150;-63
2022/08/12 03:05:45;;;;;;;6.60;3.63;;;;;;;;;;5043278;28;20402;-64
2022/08/12 03:08:14;;;;;;;6.63;4.15;;;;;;;;;;5050876;28;20033;-64
2022/08/12 03:10:43;;;;;;;7.93;4.00;;;;;;;;;;5036956;28;20512;-63
2022/08/12 03:13:11;;;;;;;6.28;3.83;;;;;;;;;;5032782;28;20026;-63
2022/08/12 03:15:36;;;;;;;8.15;4.32;;;;;;;;;;5052725;28;20029;-63
2022/08/12 03:18:13;;;;;;;6.90;3.90;;;;;;;;;;5050304;28;20029;-65
2022/08/12 03:20:39;;;;;;;10.02;4.05;;;;;;;;;;5047859;28;20047;-63
2022/08/12 03:23:10;;;;;;;5.45;3.85;;;;;;;;;;5049797;28;20021;-63
2022/08/12 03:25:38;;;;;;;;;;;;;;;;;;5050302;28;20357;-62
2022/08/12 03:28:07;;;;;;;8.48;4.35;;;;;;;;;;5050068;28;20159;-63
2022/08/12 03:30:32;;;;;;;5.72;3.90;;;;;;;;;;5049350;28;20033;-63
2022/08/12 03:33:01;;;;;;;6.95;4.07;;;;;;;;;;5042449;28;20457;-63
2022/08/12 03:35:31;;;;;;;9.57;4.00;;;;;;;;;;5048372;28;20037;-63
2022/08/12 03:38:01;;;;;;;7.55;4.60;;;;;;;;;;5048046;28;20082;-63
2022/08/12 04:02:44;;;;;;;7.13;5.13;;;;;;;;;;5040106;28;20497;-63
2022/08/12 04:05:11;;;;;;;8.93;4.70;;;;;;;;;;5034917;28;20069;-64
2022/08/12 04:07:37;;;;;;;9.85;5.10;;;;;;;;;;5051758;28;20458;-62
2022/08/12 04:10:03;;;;;;;10.18;5.05;;;;;;;;;;5048657;28;20110;-62
2022/08/12 04:15:18;;;;;;;6.75;4.63;;;;;;;;;;5036076;28;20516;-62
2022/08/12 04:17:46;;;;;;;10.63;4.80;;;;;;;;;;5027308;28;20037;-63
2022/08/12 04:20:17;;;;;;;6.22;5.10;;;;;;;;;;5047228;28;20052;-63
2022/08/12 04:22:43;;;;;;;6.78;4.70;;;;;;;;;;5031508;28;20032;-63
2022/08/12 04:25:11;;;;;;;10.45;4.70;;;;;;;;;;5049450;28;20028;-64
2022/08/12 04:27:37;;;;;;;8.93;5.45;;;;;;;;;;5040460;28;20385;-64
2022/08/12 04:30:04;;;;;;;7.85;5.10;;;;;;;;;;5030518;28;20037;-64
2022/08/12 04:32:30;;;;;;;10.30;5.03;;;;;;;;;;5030690;28;20045;-63
2022/08/12 04:34:56;;;;;;;6.55;4.90;;;;;;;;;;5012840;28;20355;-63
2022/08/12 04:37:22;;;;;;;9.00;4.63;;;;;;;;;;5030756;28;20036;-62
2022/08/12 04:39:48;;;;;;;7.32;4.28;;;;;;;;;;5031242;28;20030;-64
2022/08/12 04:42:14;;;;;;;8.65;5.20;;;;;;;;;;5031581;28;20037;-63
2022/08/12 04:44:41;;;;;;;6.63;4.82;;;;;;;;;;5044071;28;20397;-63
2022/08/12 04:47:09;;;;;;;11.38;4.95;;;;;;;;;;5036029;28;20025;-63
2022/08/12 04:49:35;;;;;;;7.82;5.22;;;;;;;;;;5030982;28;20045;-63
2022/08/12 04:52:02;;;;;;;9.68;5.63;;;;;;;;;;5033566;28;20033;-63
2022/08/12 04:54:27;;;;;;;9.80;5.70;;;;;;;;;;5046672;28;20037;-62
2022/08/12 04:56:53;;;;;;;9.90;6.38;;;;;;;;;;5035535;28;20436;-65
2022/08/12 04:59:18;;;;;;;12.50;5.93;;;;;;;;;;5042957;28;20392;-64
2022/08/12 05:01:50;;;;;;;11.10;6.03;;;;;;;;;;5039515;28;20515;-63
2022/08/12 05:04:18;;;;;;;16.08;5.85;;;;;;;;;;5044439;28;20029;-62
2022/08/12 05:06:44;;;;;;;8.48;6.30;;;;;;;;;;5055441;28;20055;-62
2022/08/12 05:09:09;;;;;;;7.88;5.93;;;;;;;;;;5039171;28;20128;-62
2022/08/12 05:11:35;;;;;;;11.45;6.05;;;;;;;;;;5040458;28;20056;-65
2022/08/12 05:14:01;;;;;;;11.07;6.20;;;;;;;;;;5034919;28;20083;-62
2022/08/12 05:16:26;;;;;;;8.65;6.03;;;;;;;;;;5046820;28;20495;-62
2022/08/12 05:18:52;;;;;;;13.15;6.35;;;;;;;;;;5051296;28;20029;-67
2022/08/12 05:21:17;;;;;;;9.95;6.40;;;;;;;;;;5054357;28;20032;-63
2022/08/12 05:23:43;;;;;;;12.10;6.57;;;;;;;;;;5049656;28;20413;-63
2022/08/12 05:26:09;;;;;;;10.32;6.22;;;;;;;;;;5033707;28;20482;-63
2022/08/12 05:28:34;;;;;;;10.68;6.07;;;;;;;;;;5039114;28;20509;-62
2022/08/12 05:31:00;;;;;;;11.55;6.55;;;;;;;;;;5021229;28;20044;-63
2022/08/12 05:33:38;;;;;;;12.48;6.72;;;;;;;;;;5034353;28;20389;-63
2022/08/12 05:36:11;;;;;;;11.57;6.45;;;;;;;;;;5033516;28;20059;-62
2022/08/12 05:38:55;;;;;;;13.35;6.80;;;;;;;;;;5032295;28;20413;-65
2022/08/12 05:41:23;;;;;;;11.73;7.00;;;;;;;;;;5034376;28;20388;-65
2022/08/12 05:43:51;;;;;;;11.60;7.03;;;;;;;;;;5035928;28;20037;-65
2022/08/12 05:46:17;;;;;;;12.32;6.95;;;;;;;;;;5051199;28;20405;-63
2022/08/12 05:48:43;;;;;;;12.75;6.63;;;;;;;;;;5047333;28;20029;-63
2022/08/12 05:51:12;;;;;;;13.38;7.03;;;;;;;;;;5033371;28;20048;-63
2022/08/12 05:53:39;;;;;;;11.98;6.65;;;;;;;;;;5048635;28;20493;-63
2022/08/12 05:56:05;;;;;;;15.93;7.40;;;;;;;;;;5035125;28;20071;-65
2022/08/12 05:58:31;;;;;;;11.75;6.97;;;;;;;;;;5052237;28;20440;-65
2022/08/12 06:00:57;;;;;;;13.75;7.82;;;;;;;;;;5032788;28;20371;-64
2022/08/12 06:03:24;;;;;;;13.05;6.90;;;;;;;;;;5041781;28;20026;-62
2022/08/12 06:05:51;;;;;;;13.82;6.68;;;;;;;;;;5032766;28;20103;-63
2022/08/12 06:08:17;;;;;;;23.77;8.95;;;;;;;;;;5041203;28;20037;-63
2022/08/12 06:10:44;;;;;;;16.77;8.02;;;;;;;;;;5053563;28;20045;-63
2022/08/12 06:13:10;;;;;;;11.35;7.80;;;;;;;;;;5049015;28;20037;-64
2022/08/12 06:15:36;;;;;;;12.05;7.70;;;;;;;;;;5051191;28;20135;-65
2022/08/12 06:18:10;;;;;;;11.00;7.68;;;;;;;;;;5035466;28;20477;-63
2022/08/12 06:20:36;;;;;;;12.48;7.40;;;;;;;;;;5033606;28;20033;-65
2022/08/12 06:23:02;;;;;;;12.90;7.85;;;;;;;;;;5043062;28;20064;-65
2022/08/12 06:25:28;;;;;;;12.43;7.18;;;;;;;;;;5033045;28;20057;-65
2022/08/12 06:27:58;;;;;;;11.63;7.15;;;;;;;;;;5032453;28;20490;-67
2022/08/12 06:30:25;;;;;;;9.95;7.20;;;;;;;;;;5037529;28;20037;-63
2022/08/12 06:32:51;;;;;;;11.07;7.68;;;;;;;;;;5033250;28;20071;-62
2022/08/12 06:35:17;;;;;;;10.50;7.07;;;;;;;;;;5030957;28;20022;-61
2022/08/12 06:37:47;;;;;;;11.80;6.80;;;;;;;;;;5033140;28;20025;-63
2022/08/12 06:40:13;;;;;;;10.60;6.05;;;;;;;;;;5031739;28;20272;-64
2022/08/12 06:42:50;;;;;;;10.40;6.30;;;;;;;;;;5033187;28;20053;-63
2022/08/12 06:45:20;;;;;;;12.93;5.93;;;;;;;;;;5039770;28;20151;-65
2022/08/12 06:47:46;;;;;;;13.00;6.18;;;;;;;;;;5042837;28;20025;-66
2022/08/12 06:50:14;;;;;;;14.43;6.30;;;;;;;;;;5050119;28;20064;-64
2022/08/12 06:52:44;;;;;;;10.55;6.18;;;;;;;;;;5040343;28;20041;-65
2022/08/12 06:55:12;;;;;;;15.32;6.45;;;;;;;;;;5040820;28;20025;-65
2022/08/12 06:57:53;;;;;;;10.95;6.00;;;;;;;;;;5052397;28;20044;-63
2022/08/12 07:00:21;;;;;;;11.18;6.15;;;;;;;;;;5050750;28;20124;-65
2022/08/12 07:02:47;;;;;;;10.85;6.07;;;;;;;;;;5036833;28;20112;-65
2022/08/12 07:05:12;;;;;;;12.68;6.00;;;;;;;;;;5024080;28;20155;-65
2022/08/12 07:07:38;;;;;;;11.98;6.05;;;;;;;;;;5032454;28;20029;-62
2022/08/12 07:10:04;;;;;;;14.43;5.68;;;;;;;;;;5034294;28;20040;-62
2022/08/12 07:12:30;;;;;;;14.07;6.25;;;;;;;;;;5032497;28;20112;-64
2022/08/12 07:15:00;;;;;;;11.02;5.93;;;;;;;;;;5032656;28;20029;-66
2022/08/12 07:17:30;;;;;;;14.40;6.53;;;;;;;;;;5026498;28;20041;-63
2022/08/12 07:19:56;;;;;;;9.73;5.90;;;;;;;;;;5048489;28;20466;-67
2022/08/12 07:22:22;;;;;;;9.98;5.80;;;;;;;;;;5051339;28;20029;-65
2022/08/12 07:25:29;;;;;;;9.70;5.78;;;;;;;;;;5040367;28;20034;-63
2022/08/12 07:27:39;;;;;;;14.10;6.00;;;;;;;;;;5031549;28;20049;-64
2022/08/12 07:30:06;;;;;;;9.15;5.25;;;;;;;;;;5040603;28;20474;-65
2022/08/12 07:32:32;;;;;;;10.88;5.43;;;;;;;;;;5035014;28;20548;-64
2022/08/12 07:34:57;;;;;;;13.40;5.90;;;;;;;;;;5031770;28;20029;-67
2022/08/12 07:37:22;;;;;;;16.92;6.05;;;;;;;;;;5030945;28;20124;-64
2022/08/12 07:39:49;;;;;;;17.17;6.13;;;;;;;;;;5031772;28;20357;-63
2022/08/12 07:42:14;;;;;;;10.18;5.80;;;;;;;;;;5044114;28;20033;-64
2022/08/12 07:44:40;;;;;;;14.48;5.88;;;;;;;;;;5041532;28;20037;-65
2022/08/12 07:47:06;;;;;;;12.23;5.78;;;;;;;;;;5042923;28;20029;-62
2022/08/12 07:49:32;;;;;;;11.80;5.53;;;;;;;;;;5043103;28;20037;-63
2022/08/12 07:51:59;;;;;;;12.55;5.80;;;;;;;;;;5041095;28;20037;-67
2022/08/12 07:54:24;;;;;;;11.27;5.65;;;;;;;;;;5041571;28;20036;-63
2022/08/12 07:56:50;;;;;;;13.07;5.50;;;;;;;;;;5051365;28;20371;-63
2022/08/12 07:59:15;;;;;;;12.20;5.38;;;;;;;;;;5033947;28;20424;-62
2022/08/12 08:01:41;;;;;;;14.77;5.40;;;;;;;;;;5050401;28;20492;-64
2022/08/12 08:06:52;;;;;;;14.00;5.35;;;;;;;;;;5034753;28;20036;-62
2022/08/12 08:09:20;;;;;;;12.90;5.85;;;;;;;;;;5049744;28;20033;-62
2022/08/12 08:14:31;;;;;;;14.23;5.05;;;;;;;;;;5051266;28;20112;-63
2022/08/12 08:16:58;;;;;;;13.35;4.82;;;;;;;;;;5032454;28;20029;-62
2022/08/12 08:19:24;;;;;;;8.65;4.90;;;;;;;;;;5030904;28;20040;-63
2022/08/12 08:21:54;;;;;;;6.85;4.40;;;;;;;;;;5030912;28;20067;-62
2022/08/12 08:24:23;;;;;;;10.30;4.60;;;;;;;;;;5030489;28;20442;-64
2022/08/12 08:26:50;;;;;;;8.63;4.10;;;;;;;;;;5031590;28;20041;-62
2022/08/12 08:29:16;;;;;;;8.48;4.25;;;;;;;;;;5037118;28;20041;-63
2022/08/12 08:31:45;;;;;;;9.93;4.18;;;;;;;;;;5053068;28;20032;-62
2022/08/12 08:34:13;;;;;;;6.90;4.05;;;;;;;;;;5056910;28;20037;-65
2022/08/12 08:36:39;;;;;;;8.20;4.20;;;;;;;;;;5054404;28;20245;-61
2022/08/12 08:39:06;;;;;;;10.43;4.18;;;;;;;;;;5042213;28;20436;-64
2022/08/12 08:44:15;;;;;;;9.07;3.90;;;;;;;;;;5049429;28;20545;-64
2022/08/12 08:46:43;;;;;;;6.18;3.67;;;;;;;;;;5040503;28;20116;-66
2022/08/12 08:49:09;;;;;;;8.30;3.78;;;;;;;;;;5074175;28;20445;-63
2022/08/12 08:51:35;;;;;;;7.22;3.63;;;;;;;;;;5073067;28;20032;-62
2022/08/12 08:54:00;;;;;;;12.43;3.60;;;;;;;;;;5055641;28;20031;-68
2022/08/12 08:56:28;;;;;;;8.55;3.53;;;;;;;;;;5057268;28;20108;-65
2022/08/12 08:58:53;;;;;;;8.73;3.72;;;;;;;;;;5037622;28;20049;-66
2022/08/12 09:01:21;;;;;;;12.30;4.00;;;;;;;;;;5036725;28;20044;-64
2022/08/12 09:03:47;;;;;;;8.65;3.85;;;;;;;;;;5037625;28;20025;-64
2022/08/12 09:06:13;;;;;;;4.72;3.20;;;;;;;;;;5036035;28;20038;-64
2022/08/12 09:08:40;;;;;;;6.22;3.28;;;;;;;;;;5019671;28;20038;-64
2022/08/12 09:13:50;;;;;;;8.02;3.20;;;;;;;;;;5056677;28;20067;-64
2022/08/12 09:16:16;;;;;;;3.83;2.92;;;;;;;;;;5043849;28;20064;-64
2022/08/12 09:18:42;;;;;;;7.18;3.05;;;;;;;;;;5037543;28;20112;-63
2022/08/12 09:21:08;;;;;;;5.07;2.90;;;;;;;;;;5053424;28;20123;-64
2022/08/12 09:23:35;;;;;;;4.65;2.90;;;;;;;;;;5044425;28;20041;-64
2022/08/12 09:26:01;;;;;;;10.27;3.20;;;;;;;;;;5046526;28;20036;-68
2022/08/12 09:28:31;;;;;;;11.07;3.13;;;;;;;;;;5056742;28;20075;-64
2022/08/12 09:30:57;;;;;;;5.10;2.72;;;;;;;;;;5047631;28;20041;-65
2022/08/12 09:33:32;;;;;;;4.70;2.78;;;;;;;;;;5054185;28;20108;-62
2022/08/12 09:36:03;;;;;;;7.25;2.50;;;;;;;;;;5053339;28;20082;-63
2022/08/12 09:38:29;;;;;;;6.18;2.40;;;;;;;;;;5056891;28;20079;-63
2022/08/12 09:40:56;;;;;;;5.47;2.75;;;;;;;;;;5040063;28;20048;-65
2022/08/12 09:46:06;;;;;;;7.55;2.70;;;;;;;;;;5044214;28;20048;-66
2022/08/12 09:48:33;;;;;;;5.20;2.60;;;;;;;;;;5056186;28;20032;-67
2022/08/12 09:50:58;;;;;;;7.68;2.63;;;;;;;;;;5042072;28;20492;-64
2022/08/12 09:53:25;;;;;;;5.10;2.45;;;;;;;;;;5053197;28;20041;-64
2022/08/12 09:55:53;;;;;;;6.60;2.60;;;;;;;;;;5038452;28;20083;-64
2022/08/12 09:58:30;;;;;;;10.38;2.53;;;;;;;;;;5043873;28;20038;-64
2022/08/12 10:01:01;;;;;;;3.88;2.40;;;;;;;;;;5036954;28;20112;-65
2022/08/12 10:03:35;;;;;;;4.88;2.40;;;;;;;;;;5032876;28;20025;-66
2022/08/12 10:06:04;;;;;;;12.68;2.83;;;;;;;;;;5035675;28;20033;-64
2022/08/12 10:08:30;;;;;;;10.18;2.65;;;;;;;;;;5051611;28;20033;-66
2022/08/12 10:13:41;;;;;;;7.68;2.50;;;;;;;;;;5034442;28;20561;-63
2022/08/12 10:16:07;;;;;;;3.45;2.50;;;;;;;;;;5039139;28;20112;-69
2022/08/12 10:18:36;;;;;;;5.50;2.60;;;;;;;;;;5047198;28;20021;-66
2022/08/12 10:21:13;;;;;;;4.72;2.60;;;;;;;;;;5053197;28;20024;-64
2022/08/12 10:23:40;;;;;;;6.75;2.20;;;;;;;;;;5040276;28;20034;-65
2022/08/12 10:31:38;;;;;;;3.53;2.53;;;;;;;;;;5032383;28;20083;-65
2022/08/12 10:34:05;;;;;;;5.07;2.40;;;;;;;;;;5036826;28;20029;-68
2022/08/12 10:36:32;;;;;;;5.38;2.47;;;;;;;;;;5048530;28;20037;-65
2022/08/12 10:38:58;;;;;;;5.90;2.67;;;;;;;;;;5045568;28;20437;-64
2022/08/12 10:44:11;;;;;;;7.10;2.38;;;;;;;;;;5032290;28;20048;-67
2022/08/12 10:46:36;;;;;;;3.40;2.37;;;;;;;;;;5031455;28;20072;-62
2022/08/12 10:49:02;;;;;;;6.45;2.80;;;;;;;;;;5049439;28;20033;-63
2022/08/12 10:51:29;;;;;;;4.05;2.65;;;;;;;;;;5048802;28;20132;-68
2022/08/12 10:53:55;;;;;;;4.35;2.55;;;;;;;;;;5052938;28;20461;-64
2022/08/12 10:56:21;;;;;;;7.28;2.80;;;;;;;;;;5047765;28;20107;-65
2022/08/12 10:58:47;;;;;;;7.18;2.65;;;;;;;;;;5033199;28;20090;-63
2022/08/12 11:01:14;;;;;;;5.30;2.67;;;;;;;;;;5038305;28;20033;-63
2022/08/12 11:03:40;;;;;;;4.30;2.40;;;;;;;;;;5050402;28;20043;-63
2022/08/12 11:06:08;;;;;;;4.95;2.50;;;;;;;;;;5047214;28;20082;-66
2022/08/12 11:08:36;;;;;;;10.20;2.63;;;;;;;;;;5050188;28;20044;-62
2022/08/12 11:11:07;;;;;;;5.65;2.50;;;;;;;;;;5047219;28;20029;-64
2022/08/12 11:13:35;;;;;;;;;;;;;;;;;;5031804;28;20037;-63
2022/08/12 11:16:01;;;;;;;4.03;2.35;;;;;;;;;;5032658;28;19913;-64
2022/08/12 11:18:27;;;;;;;5.85;2.70;;;;;;;;;;5047955;28;20036;-66
2022/08/12 11:20:53;;;;;;;4.25;2.50;;;;;;;;;;5040212;28;20026;-64
2022/08/12 11:23:20;;;;;;;5.15;2.60;;;;;;;;;;5030969;28;20099;-65
2022/08/12 11:25:46;;;;;;;5.30;2.42;;;;;;;;;;5031469;28;20508;-66
2022/08/12 11:28:12;;;;;;;3.35;2.40;;;;;;;;;;5031093;28;20175;-63
2022/08/12 11:30:38;;;;;;;7.63;2.45;;;;;;;;;;5039114;28;20427;-64
2022/08/12 11:33:03;;;;;;;6.30;2.40;;;;;;;;;;5051935;28;20044;-66
2022/08/12 11:35:29;;;;;;;4.07;2.30;;;;;;;;;;5049706;28;20181;-64
2022/08/12 11:37:54;;;;;;;7.60;2.45;;;;;;;;;;5051941;28;20021;-64
2022/08/12 11:40:20;;;;;;;4.93;2.40;;;;;;;;;;5044446;28;20038;-65
2022/08/12 11:42:45;;;;;;;5.25;2.40;;;;;;;;;;5051241;28;20479;-65
2022/08/12 11:45:11;;;;;;;5.90;2.35;;;;;;;;;;5049764;28;20580;-68
2022/08/12 11:47:37;;;;;;;4.10;2.33;;;;;;;;;;5051704;28;20057;-65
2022/08/12 11:50:04;;;;;;;7.63;2.47;;;;;;;;;;5037428;28;20486;-65
2022/08/12 11:52:29;;;;;;;5.45;2.90;;;;;;;;;;5035813;28;20025;-66
2022/08/12 11:54:55;;;;;;;5.10;2.35;;;;;;;;;;5045535;28;20035;-64
2022/08/12 11:57:20;;;;;;;6.47;2.33;;;;;;;;;;5050736;28;20094;-66
2022/08/12 11:59:46;;;;;;;4.85;2.50;;;;;;;;;;5050687;28;20041;-64
2022/08/12 12:02:11;;;;;;;5.60;2.20;;;;;;;;;;5050098;28;20104;-67
2022/08/12 12:04:37;;;;;;;6.60;2.33;;;;;;;;;;5015017;28;20065;-66
2022/08/12 12:07:02;;;;;;;8.43;2.10;;;;;;;;;;5032061;28;20429;-65
2022/08/12 12:09:27;;;;;;;4.38;2.10;;;;;;;;;;5045748;28;20131;-65
2022/08/12 12:11:53;;;;;;;3.90;2.03;;;;;;;;;;5051467;28;20363;-65
2022/08/12 12:14:19;;;;;;;4.50;2.20;;;;;;;;;;5046659;28;20076;-64
2022/08/12 12:16:44;;;;;;;6.60;2.47;;;;;;;;;;5050949;28;20025;-64
2022/08/12 12:19:10;;;;;;;4.70;2.22;;;;;;;;;;5033659;28;20043;-65
2022/08/12 12:21:35;;;;;;;4.93;2.38;;;;;;;;;;5030634;28;20385;-63
2022/08/12 12:24:01;;;;;;;3.25;2.15;;;;;;;;;;5031282;28;20037;-63
2022/08/12 12:26:26;;;;;;;7.45;2.20;;;;;;;;;;5030134;28;20086;-65
2022/08/12 12:28:52;;;;;;;5.00;2.17;;;;;;;;;;5030520;28;20033;-64
2022/08/12 12:31:17;;;;;;;4.03;2.03;;;;;;;;;;5029483;28;20034;-63
2022/08/12 12:33:43;;;;;;;4.15;1.98;;;;;;;;;;5049561;28;20040;-62
2022/08/12 12:36:08;;;;;;;4.93;2.10;;;;;;;;;;5049979;28;20064;-66
2022/08/12 12:38:34;;;;;;;6.72;2.50;;;;;;;;;;5048745;28;20040;-64
2022/08/12 12:40:59;;;;;;;8.15;1.90;;;;;;;;;;5047032;28;20028;-65
2022/08/12 12:43:25;;;;;;;5.05;1.88;;;;;;;;;;5032145;28;20029;-66
2022/08/12 12:45:51;;;;;;;2.53;2.00;;;;;;;;;;5040838;28;20362;-63
2022/08/12 12:48:18;;;;;;;3.47;1.73;;;;;;;;;;5036844;28;20384;-62
2022/08/12 12:53:37;;;;;;;3.55;1.73;;;;;;;;;;5042192;28;20056;-65
2022/08/12 12:56:03;;;;;;;2.08;1.70;;;;;;;;;;5030620;28;20025;-65
2022/08/12 12:58:29;;;;;;;3.80;1.88;;;;;;;;;;5035363;28;20045;-65
2022/08/12 13:00:58;;;;;;;2.55;1.70;;;;;;;;;;5050476;28;20032;-66
2022/08/12 13:03:24;;;;;;;6.22;1.80;;;;;;;;;;5045278;28;20032;-65
2022/08/12 13:05:51;;;;;;;6.30;1.80;;;;;;;;;;5048386;28;20032;-65
2022/08/12 13:08:29;;;;;;;4.50;2.10;;;;;;;;;;5034017;28;20035;-64
2022/08/12 13:11:01;;;;;;;3.22;2.00;;;;;;;;;;5037047;28;20025;-66
2022/08/12 13:13:28;;;;;;;3.40;1.90;;;;;;;;;;5039080;28;20104;-64
2022/08/12 13:15:55;;;;;;;4.82;1.80;;;;;;;;;;5034270;28;20055;-64
2022/08/12 13:18:22;;;;;;;4.07;1.80;;;;;;;;;;5046696;28;20029;-66
2022/08/12 13:20:48;;;;;;;2.28;1.63;;;;;;;;;;5054477;28;20436;-65
2022/08/12 13:23:16;;;;;;;5.35;2.03;;;;;;;;;;5045998;28;20033;-66
2022/08/12 13:25:42;;;;;;;2.05;1.73;;;;;;;;;;5035728;28;20486;-66
2022/08/12 13:28:20;;;;;;;3.08;1.90;;;;;;;;;;5016198;28;20033;-67
2022/08/12 13:30:45;;;;;;;2.08;1.70;;;;;;;;;;5034479;28;20049;-64
2022/08/12 13:33:13;;;;;;;3.33;1.67;;;;;;;;;;5034481;28;20477;-66
2022/08/12 13:35:38;;;;;;;6.57;1.85;;;;;;;;;;5033630;28;20505;-65
2022/08/12 13:38:09;;;;;;;4.95;1.80;;;;;;;;;;5034215;28;20065;-62
2022/08/12 13:40:35;;;;;;;6.43;1.85;;;;;;;;;;5037878;28;20025;-65
2022/08/12 13:43:05;;;;;;;2.97;1.70;;;;;;;;;;5053558;28;20465;-63
2022/08/12 13:45:31;;;;;;;4.40;1.98;;;;;;;;;;5043350;28;20049;-65
2022/08/12 13:48:04;;;;;;;5.50;1.80;;;;;;;;;;5046949;28;20521;-64
2022/08/12 13:50:39;;;;;;;5.13;1.70;;;;;;;;;;5053694;28;20037;-64
2022/08/12 13:53:10;;;;;;;4.22;1.90;;;;;;;;;;5049444;28;20081;-63
2022/08/12 13:55:37;;;;;;;6.93;2.00;;;;;;;;;;5044008;28;20041;-64
2022/08/12 13:58:10;;;;;;;8.50;1.90;;;;;;;;;;5043032;28;20041;-63
2022/08/12 14:00:36;;;;;;;7.00;1.90;;;;;;;;;;5040570;28;20087;-65
2022/08/12 14:03:02;;;;;;;3.47;2.00;;;;;;;;;;5037053;28;20087;-64
2022/08/12 14:05:28;;;;;;;2.20;1.75;;;;;;;;;;5051715;28;20037;-64
2022/08/12 14:08:02;;;;;;;6.65;1.80;;;;;;;;;;5044508;28;20067;-64
2022/08/12 14:10:36;;;;;;;16.70;1.95;;;;;;;;;;5034784;28;20044;-64
2022/08/12 14:13:08;;;;;;;3.22;1.83;;;;;;;;;;5035916;28;20061;-63
2022/08/12 14:15:39;;;;;;;3.97;1.60;;;;;;;;;;5031742;28;20061;-64
2022/08/12 14:18:17;;;;;;;4.72;1.80;;;;;;;;;;5045082;28;20033;-63
2022/08/12 14:20:46;;;;;;;2.72;1.80;;;;;;;;;;5050879;28;20035;-64
2022/08/12 14:23:12;;;;;;;2.28;1.80;;;;;;;;;;5044197;28;20033;-65
2022/08/12 14:25:39;;;;;;;4.43;2.08;;;;;;;;;;5051847;28;20024;-64
2022/08/12 14:28:14;;;;;;;3.42;1.90;;;;;;;;;;5046441;28;20037;-65
2022/08/12 14:30:52;;;;;;;5.07;1.83;;;;;;;;;;5048535;28;20229;-64
2022/08/12 14:33:22;;;;;;;2.22;1.80;;;;;;;;;;5052042;28;20033;-64
2022/08/12 14:35:49;;;;;;;6.55;2.03;;;;;;;;;;5041956;28;20128;-64
2022/08/12 14:38:23;;;;;;;5.10;1.90;;;;;;;;;;5032907;28;20381;-63
2022/08/12 14:40:55;;;;;;;4.50;1.95;;;;;;;;;;5021487;28;20188;-63
2022/08/12 14:43:27;;;;;;;6.13;1.80;;;;;;;;;;5032307;28;20037;-64
2022/08/12 14:45:53;;;;;;;6.40;1.90;;;;;;;;;;5041513;28;20104;-63
2022/08/12 14:48:19;;;;;;;6.25;1.90;;;;;;;;;;5043020;28;20029;-65
2022/08/12 14:50:49;;;;;;;3.15;1.70;;;;;;;;;;5033283;28;20470;-65
2022/08/12 14:53:16;;;;;;;4.13;1.70;;;;;;;;;;5033127;28;20036;-64
2022/08/12 14:55:44;;;;;;;5.50;1.90;;;;;;;;;;5032136;28;20037;-64
2022/08/12 14:58:10;;;;;;;4.60;1.90;;;;;;;;;;5031524;28;20053;-65
2022/08/12 15:03:26;;;;;;;3.58;1.80;;;;;;;;;;5038293;28;20036;-64
2022/08/12 15:05:59;;;;;;;3.42;1.73;;;;;;;;;;5050686;28;20087;-63
2022/08/12 15:08:34;;;;;;;3.15;1.77;;;;;;;;;;5029590;28;20061;-64
2022/08/12 15:11:03;;;;;;;4.93;2.03;;;;;;;;;;5015495;28;20040;-62
2022/08/12 15:13:31;;;;;;;3.75;1.80;;;;;;;;;;5040896;28;20025;-64
2022/08/12 15:16:00;;;;;;;4.53;1.85;;;;;;;;;;5048031;28;20047;-66
2022/08/12 15:18:27;;;;;;;4.53;1.73;;;;;;;;;;5047367;28;20033;-65
2022/08/12 15:20:55;;;;;;;6.00;1.90;;;;;;;;;;5048550;28;20378;-63
2022/08/12 15:23:22;;;;;;;3.65;1.80;;;;;;;;;;5032207;28;20111;-64
2022/08/12 15:25:49;;;;;;;3.88;2.00;;;;;;;;;;5031321;28;20034;-64
2022/08/12 15:28:18;;;;;;;2.45;1.63;;;;;;;;;;5031658;28;20112;-64
2022/08/12 15:30:44;;;;;;;8.82;1.90;;;;;;;;;;5045244;28;20036;-63
2022/08/12 15:33:10;;;;;;;6.78;2.00;;;;;;;;;;5051788;28;20047;-65
2022/08/12 15:35:36;;;;;;;3.17;1.80;;;;;;;;;;5031845;28;20428;-64
2022/08/12 15:38:02;;;;;;;3.63;1.70;;;;;;;;;;5032035;28;20026;-63
2022/08/12 15:40:28;;;;;;;4.20;1.73;;;;;;;;;;5049339;28;20059;-64
2022/08/12 15:42:57;;;;;;;5.75;1.88;;;;;;;;;;5052182;28;20037;-63
2022/08/12 15:45:22;;;;;;;9.20;1.70;;;;;;;;;;5049231;28;20131;-64
2022/08/12 15:47:51;;;;;;;4.57;1.80;;;;;;;;;;5041827;28;20108;-63
2022/08/12 15:50:18;;;;;;;5.65;1.75;;;;;;;;;;5052013;28;20029;-63
2022/08/12 15:52:44;;;;;;;3.30;1.70;;;;;;;;;;5045624;28;20039;-64
2022/08/12 15:55:13;;;;;;;2.47;1.90;;;;;;;;;;5032937;28;20223;-64
2022/08/12 15:57:52;;;;;;;7.23;1.83;;;;;;;;;;5015077;28;20057;-64
2022/08/12 16:00:30;;;;;;;4.82;2.28;;;;;;;;;;5051698;28;20281;-64
2022/08/12 16:02:57;;;;;;;3.55;1.77;;;;;;;;;;5046912;28;20496;-64
2022/08/12 16:05:25;;;;;;;7.75;2.05;;;;;;;;;;5030103;28;20041;-65
2022/08/12 16:07:51;;;;;;;6.20;1.63;;;;;;;;;;5048698;28;20033;-63
2022/08/12 16:10:17;;;;;;;3.58;1.70;;;;;;;;;;5051782;28;20033;-63
2022/08/12 16:12:45;;;;;;;5.18;1.95;;;;;;;;;;5048561;28;20620;-63
2022/08/12 16:15:14;;;;;;;4.45;1.92;;;;;;;;;;5037882;28;20469;-64
2022/08/12 16:17:43;;;;;;;3.07;1.87;;;;;;;;;;5046884;28;20108;-63
2022/08/12 16:20:10;;;;;;;4.40;1.70;;;;;;;;;;5047106;28;20456;-63
2022/08/12 16:22:36;;;;;;;3.53;1.80;;;;;;;;;;5036866;28;20083;-65
2022/08/12 16:25:05;;;;;;;4.93;1.80;;;;;;;;;;5025259;28;20425;-64
2022/08/12 16:27:32;;;;;;;5.00;2.00;;;;;;;;;;5049015;28;20041;-64
2022/08/12 16:29:58;;;;;;;5.47;1.90;;;;;;;;;;5049532;28;20485;-64
2022/08/12 16:32:26;;;;;;;2.45;1.83;;;;;;;;;;5044079;28;20056;-64
2022/08/12 16:34:54;;;;;;;3.60;2.00;;;;;;;;;;5047328;28;20487;-63
2022/08/12 16:37:20;;;;;;;5.65;2.17;;;;;;;;;;5031986;28;20125;-66
2022/08/12 16:39:46;;;;;;;4.25;2.13;;;;;;;;;;5024020;28;20703;-65
2022/08/12 16:42:12;;;;;;;5.20;2.00;;;;;;;;;;5031393;28;20116;-67
2022/08/12 16:44:37;;;;;;;7.50;2.20;;;;;;;;;;5029542;28;20029;-66